createdAt,value
2023-05-30T00:00:25.795Z,14.48
2023-05-30T00:01:25.792Z,14.44
2023-05-30T00:02:25.906Z,14.40
2023-05-30T00:03:25.881Z,14.41
2023-05-30T00:04:25.801Z,14.41
2023-05-30T00:05:25.789Z,14.45
2023-05-30T00:06:25.754Z,14.41
2023-05-30T00:07:25.731Z,14.44
2023-05-30T00:08:25.815Z,14.26
2023-05-30T00:09:25.732Z,14.29
2023-05-30T00:10:25.760Z,14.33
2023-05-30T00:11:25.717Z,14.29
2023-05-30T00:12:25.726Z,14.22
2023-05-30T00:13:25.713Z,14.25
2023-05-30T00:14:25.696Z,14.25
2023-05-30T00:15:25.727Z,14.25
2023-05-30T00:16:25.917Z,14.22
2023-05-30T00:17:25.724Z,14.25
2023-05-30T00:18:25.677Z,14.28
2023-05-30T00:19:25.675Z,14.22
2023-05-30T00:20:25.650Z,14.28
2023-05-30T00:21:25.650Z,14.22
2023-05-30T00:22:25.641Z,14.28
2023-05-30T00:23:25.667Z,14.25
2023-05-30T00:24:25.581Z,14.22
2023-05-30T00:25:25.606Z,14.26
2023-05-30T00:26:25.612Z,14.20
2023-05-30T00:27:25.596Z,14.26
2023-05-30T00:28:25.624Z,14.12
2023-05-30T00:29:25.568Z,14.20
2023-05-30T00:30:25.593Z,14.14
2023-05-30T00:31:25.570Z,14.14
2023-05-30T00:32:25.567Z,14.08
2023-05-30T00:33:25.509Z,14.20
2023-05-30T00:34:25.546Z,14.18
2023-05-30T00:35:25.546Z,14.12
2023-05-30T00:36:25.525Z,14.11
2023-05-30T00:37:25.511Z,14.12
2023-05-30T00:38:25.531Z,13.96
2023-05-30T00:39:25.493Z,13.96
2023-05-30T00:40:25.513Z,13.86
2023-05-30T00:41:25.475Z,13.85
2023-05-30T00:42:25.469Z,13.89
2023-05-30T00:43:25.460Z,13.86
2023-05-30T00:44:25.474Z,13.89
2023-05-30T00:45:25.434Z,13.89
2023-05-30T00:46:25.496Z,13.95
2023-05-30T00:47:25.441Z,13.96
2023-05-30T00:48:25.424Z,13.92
2023-05-30T00:49:25.445Z,13.83
2023-05-30T00:50:25.523Z,13.87
2023-05-30T00:51:25.414Z,13.89
2023-05-30T00:52:25.374Z,13.87
2023-05-30T00:53:25.352Z,13.89
2023-05-30T00:54:25.368Z,13.83
2023-05-30T00:55:25.377Z,13.86
2023-05-30T00:56:25.342Z,13.81
2023-05-30T00:57:25.371Z,13.89
2023-05-30T00:58:25.358Z,13.87
2023-05-30T00:59:25.314Z,13.85
2023-05-30T01:00:25.320Z,13.87
2023-05-30T01:01:25.434Z,13.79
2023-05-30T01:02:25.389Z,13.86
2023-05-30T01:03:25.500Z,13.75
2023-05-30T01:04:25.338Z,13.75
2023-05-30T01:05:25.298Z,13.63
2023-05-30T01:06:25.304Z,13.60
2023-05-30T01:07:25.282Z,13.62
2023-05-30T01:08:25.264Z,13.65
2023-05-30T01:09:25.296Z,13.56
2023-05-30T01:10:25.254Z,13.54
2023-05-30T01:11:25.263Z,13.57
2023-05-30T01:12:25.429Z,13.52
2023-05-30T01:13:25.221Z,13.49
2023-05-30T01:14:25.239Z,13.57
2023-05-30T01:15:25.199Z,13.52
2023-05-30T01:16:25.230Z,13.47
2023-05-30T01:17:25.227Z,13.44
2023-05-30T01:18:25.148Z,13.42
2023-05-30T01:19:25.195Z,13.41
2023-05-30T01:20:25.183Z,13.38
2023-05-30T01:21:25.178Z,13.35
2023-05-30T01:22:58.393Z,13.38
2023-05-30T01:23:25.107Z,13.31
2023-05-30T01:24:25.109Z,13.31
2023-05-30T01:25:25.131Z,13.31
2023-05-30T01:26:25.108Z,13.25
2023-05-30T01:27:25.142Z,13.25
2023-05-30T01:28:25.097Z,13.27
2023-05-30T01:29:25.107Z,13.20
2023-05-30T01:30:25.076Z,13.18
2023-05-30T01:31:25.124Z,13.12
2023-05-30T01:32:25.096Z,13.11
2023-05-30T01:33:25.026Z,13.09
2023-05-30T01:34:25.101Z,13.05
2023-05-30T01:35:25.048Z,13.12
2023-05-30T01:36:25.059Z,13.03
2023-05-30T01:37:25.036Z,13.04
2023-05-30T01:38:25.068Z,12.86
2023-05-30T01:39:25.021Z,12.85
2023-05-30T01:40:25.037Z,12.91
2023-05-30T01:41:24.980Z,12.87
2023-05-30T01:42:25.178Z,12.87
2023-05-30T01:43:24.949Z,12.86
2023-05-30T01:44:24.968Z,12.83
2023-05-30T01:45:24.963Z,12.86
2023-05-30T01:46:25.083Z,12.86
2023-05-30T01:47:24.954Z,12.83
2023-05-30T01:48:24.936Z,12.86
2023-05-30T01:49:24.944Z,12.86
2023-05-30T01:50:24.896Z,12.85
2023-05-30T01:51:25.023Z,12.85
2023-05-30T01:52:24.900Z,12.70
2023-05-30T01:53:24.916Z,12.78
2023-05-30T01:54:24.930Z,12.72
2023-05-30T01:55:24.902Z,12.64
2023-05-30T01:56:24.854Z,12.68
2023-05-30T01:57:24.887Z,12.65
2023-05-30T01:58:24.851Z,12.54
2023-05-30T01:59:24.819Z,12.58
2023-05-30T02:00:24.833Z,12.53
2023-05-30T02:01:24.868Z,12.50
2023-05-30T02:02:24.813Z,12.42
2023-05-30T02:03:24.828Z,12.28
2023-05-30T02:04:24.794Z,12.45
2023-05-30T02:05:24.813Z,12.42
2023-05-30T02:06:24.798Z,12.35
2023-05-30T02:07:24.766Z,12.29
2023-05-30T02:08:24.777Z,12.29
2023-05-30T02:09:24.756Z,12.24
2023-05-30T02:10:24.754Z,12.25
2023-05-30T02:11:24.742Z,12.20
2023-05-30T02:12:24.723Z,12.21
2023-05-30T02:13:24.706Z,12.20
2023-05-30T02:14:24.687Z,12.06
2023-05-30T02:15:24.680Z,12.03
2023-05-30T02:16:24.713Z,12.10
2023-05-30T02:17:24.722Z,12.09
2023-05-30T02:18:24.661Z,12.13
2023-05-30T02:19:24.651Z,12.06
2023-05-30T02:20:24.694Z,11.97
2023-05-30T02:21:24.646Z,11.94
2023-05-30T02:22:24.654Z,11.94
2023-05-30T02:23:24.615Z,11.87
2023-05-30T02:24:25.991Z,11.91
2023-05-30T02:25:24.588Z,11.80
2023-05-30T02:26:24.633Z,11.81
2023-05-30T02:27:24.581Z,11.78
2023-05-30T02:28:24.617Z,11.83
2023-05-30T02:29:24.581Z,11.78
2023-05-30T02:30:24.552Z,11.69
2023-05-30T02:31:24.532Z,11.66
2023-05-30T02:32:24.741Z,11.65
2023-05-30T02:33:24.539Z,11.62
2023-05-30T02:34:24.514Z,11.57
2023-05-30T02:35:24.492Z,11.60
2023-05-30T02:36:24.504Z,11.59
2023-05-30T02:37:24.496Z,11.62
2023-05-30T02:38:24.518Z,11.60
2023-05-30T02:39:24.471Z,11.55
2023-05-30T02:40:24.449Z,11.44
2023-05-30T02:41:24.448Z,11.50
2023-05-30T02:42:24.551Z,11.47
2023-05-30T02:43:24.436Z,11.47
2023-05-30T02:44:24.432Z,11.45
2023-05-30T02:45:24.450Z,11.54
2023-05-30T02:46:24.417Z,11.48
2023-05-30T02:47:24.407Z,11.43
2023-05-30T02:48:24.394Z,11.45
2023-05-30T02:49:24.386Z,11.54
2023-05-30T02:50:24.371Z,11.47
2023-05-30T02:51:24.377Z,11.51
2023-05-30T02:52:24.354Z,11.44
2023-05-30T02:53:24.383Z,11.50
2023-05-30T02:54:24.370Z,11.50
2023-05-30T02:55:24.528Z,11.48
2023-05-30T02:56:24.308Z,11.44
2023-05-30T02:57:24.316Z,11.45
2023-05-30T02:58:24.343Z,11.44
2023-05-30T02:59:24.296Z,11.43
2023-05-30T03:00:24.268Z,11.37
2023-05-30T03:01:24.355Z,11.32
2023-05-30T03:02:24.365Z,11.30
2023-05-30T03:03:24.271Z,11.40
2023-05-30T03:04:24.244Z,11.26
2023-05-30T03:05:24.252Z,11.44
2023-05-30T03:06:24.282Z,11.37
2023-05-30T03:07:24.257Z,11.35
2023-05-30T03:08:26.481Z,11.25
2023-05-30T03:09:24.182Z,11.32
2023-05-30T03:10:24.228Z,11.32
2023-05-30T03:11:24.406Z,11.25
2023-05-30T03:12:24.167Z,11.30
2023-05-30T03:13:24.155Z,11.29
2023-05-30T03:14:24.166Z,11.35
2023-05-30T03:15:24.149Z,11.29
2023-05-30T03:16:24.173Z,11.26
2023-05-30T03:17:24.171Z,11.25
2023-05-30T03:18:24.116Z,11.25
2023-05-30T03:19:24.102Z,11.25
2023-05-30T03:20:24.093Z,11.25
2023-05-30T03:21:24.091Z,11.26
2023-05-30T03:22:24.111Z,11.19
2023-05-30T03:23:24.082Z,11.00
2023-05-30T03:24:24.044Z,11.04
2023-05-30T03:25:24.039Z,11.05
2023-05-30T03:26:24.031Z,11.04
2023-05-30T03:27:24.023Z,11.05
2023-05-30T03:28:24.000Z,11.04
2023-05-30T03:29:24.009Z,11.02
2023-05-30T03:30:24.006Z,10.93
2023-05-30T03:31:24.007Z,10.97
2023-05-30T03:32:23.999Z,10.96
2023-05-30T03:33:23.971Z,10.81
2023-05-30T03:34:23.989Z,10.89
2023-05-30T03:35:23.952Z,10.81
2023-05-30T03:36:23.950Z,10.79
2023-05-30T03:37:23.943Z,10.78
2023-05-30T03:38:23.905Z,10.82
2023-05-30T03:39:24.099Z,10.87
2023-05-30T03:40:23.899Z,10.96
2023-05-30T03:41:23.883Z,10.97
2023-05-30T03:42:23.875Z,10.97
2023-05-30T03:43:23.892Z,11.02
2023-05-30T03:44:23.884Z,11.10
2023-05-30T03:45:23.871Z,11.23
2023-05-30T03:46:23.991Z,11.26
2023-05-30T03:47:23.856Z,11.37
2023-05-30T03:48:23.855Z,11.37
2023-05-30T03:49:23.838Z,11.48
2023-05-30T03:50:23.820Z,11.57
2023-05-30T03:51:23.787Z,11.63
2023-05-30T03:52:23.784Z,11.77
2023-05-30T03:53:23.775Z,11.86
2023-05-30T03:54:23.792Z,11.97
2023-05-30T03:55:23.785Z,12.09
2023-05-30T03:56:23.770Z,12.18
2023-05-30T03:57:23.752Z,12.28
2023-05-30T03:58:23.751Z,12.29
2023-05-30T03:59:23.763Z,12.29
2023-05-30T04:00:23.726Z,12.28
2023-05-30T04:01:23.729Z,12.27
2023-05-30T04:02:23.887Z,12.27
2023-05-30T04:03:23.746Z,12.25
2023-05-30T04:04:23.713Z,12.29
2023-05-30T04:05:23.706Z,12.28
2023-05-30T04:06:23.674Z,12.35
2023-05-30T04:07:23.671Z,12.40
2023-05-30T04:08:23.670Z,12.55
2023-05-30T04:09:23.648Z,12.58
2023-05-30T04:10:23.656Z,12.65
2023-05-30T04:11:23.602Z,12.76
2023-05-30T04:12:23.634Z,12.79
2023-05-30T04:13:23.617Z,13.03
2023-05-30T04:14:23.584Z,13.09
2023-05-30T04:15:23.551Z,13.18
2023-05-30T04:16:23.582Z,13.33
2023-05-30T04:17:23.586Z,13.50
2023-05-30T04:18:23.598Z,13.52
2023-05-30T04:19:23.532Z,13.67
2023-05-30T04:20:23.566Z,13.75
2023-05-30T04:21:23.551Z,13.79
2023-05-30T04:22:23.539Z,13.87
2023-05-30T04:23:23.513Z,14.00
2023-05-30T04:24:23.715Z,14.05
2023-05-30T04:25:23.522Z,14.03
2023-05-30T04:26:23.496Z,14.17
2023-05-30T04:27:23.489Z,14.30
2023-05-30T04:28:23.479Z,14.30
2023-05-30T04:29:23.478Z,14.43
2023-05-30T04:30:23.464Z,14.45
2023-05-30T04:31:23.608Z,14.43
2023-05-30T04:32:23.426Z,14.43
2023-05-30T04:33:23.444Z,14.29
2023-05-30T04:34:23.427Z,14.17
2023-05-30T04:35:23.424Z,13.96
2023-05-30T04:36:23.404Z,13.87
2023-05-30T04:37:23.427Z,13.59
2023-05-30T04:38:23.400Z,13.44
2023-05-30T04:39:23.368Z,13.44
2023-05-30T04:40:23.360Z,13.44
2023-05-30T04:41:23.453Z,13.47
2023-05-30T04:42:23.346Z,13.52
2023-05-30T04:43:23.376Z,13.57
2023-05-30T04:44:23.342Z,13.52
2023-05-30T04:45:23.343Z,13.68
2023-05-30T04:46:23.434Z,13.75
2023-05-30T04:47:23.415Z,13.89
2023-05-30T04:48:23.300Z,13.87
2023-05-30T04:49:23.347Z,13.89
2023-05-30T04:50:23.299Z,13.87
2023-05-30T04:51:23.259Z,14.11
2023-05-30T04:52:23.274Z,14.11
2023-05-30T04:53:23.337Z,14.23
2023-05-30T04:54:23.265Z,14.23
2023-05-30T04:55:23.262Z,13.97
2023-05-30T04:56:23.276Z,13.96
2023-05-30T04:57:24.603Z,13.81
2023-05-30T04:58:23.212Z,13.74
2023-05-30T04:59:23.226Z,13.62
2023-05-30T05:00:23.228Z,13.52
2023-05-30T05:01:23.260Z,13.52
2023-05-30T05:02:23.204Z,13.62
2023-05-30T05:03:23.223Z,13.77
2023-05-30T05:04:23.160Z,13.81
2023-05-30T05:05:23.216Z,13.65
2023-05-30T05:06:23.225Z,13.62
2023-05-30T05:07:38.040Z,13.74
2023-05-30T05:08:23.172Z,13.77
2023-05-30T05:09:23.181Z,13.83
2023-05-30T05:10:23.126Z,13.86
2023-05-30T05:11:23.132Z,13.92
2023-05-30T05:12:23.140Z,13.90
2023-05-30T05:13:23.140Z,14.17
2023-05-30T05:14:23.095Z,14.22
2023-05-30T05:15:23.136Z,14.43
2023-05-30T05:16:23.126Z,14.43
2023-05-30T05:17:23.130Z,14.55
2023-05-30T05:18:23.098Z,14.70
2023-05-30T05:19:23.084Z,14.84
2023-05-30T05:20:23.081Z,14.63
2023-05-30T05:21:23.070Z,14.58
2023-05-30T05:22:23.064Z,14.50
2023-05-30T05:23:23.274Z,14.36
2023-05-30T05:24:23.028Z,14.37
2023-05-30T05:25:22.994Z,14.29
2023-05-30T05:26:23.850Z,14.03
2023-05-30T05:27:23.010Z,14.03
2023-05-30T05:28:22.969Z,13.97
2023-05-30T05:29:23.016Z,13.85
2023-05-30T05:30:22.996Z,13.89
2023-05-30T05:31:23.020Z,13.99
2023-05-30T05:32:23.050Z,13.99
2023-05-30T05:33:22.946Z,13.95
2023-05-30T05:34:22.919Z,14.08
2023-05-30T05:35:22.942Z,14.20
2023-05-30T05:36:22.927Z,14.23
2023-05-30T05:37:22.937Z,14.28
2023-05-30T05:38:22.947Z,14.28
2023-05-30T05:39:22.918Z,14.30
2023-05-30T05:40:22.873Z,14.25
2023-05-30T05:41:22.875Z,14.28
2023-05-30T05:42:22.895Z,14.25
2023-05-30T05:43:22.894Z,14.35
2023-05-30T05:44:24.595Z,14.48
2023-05-30T05:45:22.901Z,14.43
2023-05-30T05:46:22.946Z,14.28
2023-05-30T05:47:22.905Z,14.15
2023-05-30T05:48:22.869Z,14.11
2023-05-30T05:49:22.840Z,14.23
2023-05-30T05:50:22.823Z,14.15
2023-05-30T05:51:22.828Z,14.30
2023-05-30T05:52:22.791Z,14.25
2023-05-30T05:53:22.826Z,14.12
2023-05-30T05:54:22.887Z,14.07
2023-05-30T05:55:22.776Z,14.14
2023-05-30T05:56:22.791Z,14.32
2023-05-30T05:57:22.791Z,14.40
2023-05-30T05:58:22.739Z,14.50
2023-05-30T05:59:22.750Z,14.66
2023-05-30T06:00:22.767Z,14.81
2023-05-30T06:01:22.727Z,14.92
2023-05-30T06:02:22.758Z,14.91
2023-05-30T06:03:22.788Z,15.07
2023-05-30T06:04:22.832Z,15.25
2023-05-30T06:05:22.714Z,15.49
2023-05-30T06:06:22.716Z,15.58
2023-05-30T06:07:22.712Z,15.67
2023-05-30T06:08:22.779Z,15.67
2023-05-30T06:09:22.694Z,15.88
2023-05-30T06:10:22.680Z,15.77
2023-05-30T06:11:22.673Z,15.72
2023-05-30T06:12:22.666Z,15.61
2023-05-30T06:13:22.654Z,15.64
2023-05-30T06:14:22.674Z,15.59
2023-05-30T06:15:22.616Z,15.55
2023-05-30T06:16:22.650Z,15.65
2023-05-30T06:17:22.702Z,15.62
2023-05-30T06:18:22.816Z,15.55
2023-05-30T06:19:22.591Z,15.43
2023-05-30T06:20:22.596Z,15.35
2023-05-30T06:21:22.592Z,15.27
2023-05-30T06:22:22.602Z,15.29
2023-05-30T06:23:22.588Z,15.29
2023-05-30T06:24:22.567Z,15.36
2023-05-30T06:25:22.751Z,15.42
2023-05-30T06:26:22.616Z,15.44
2023-05-30T06:27:22.548Z,15.42
2023-05-30T06:28:22.536Z,15.61
2023-05-30T06:29:22.577Z,15.62
2023-05-30T06:30:22.513Z,15.68
2023-05-30T06:31:22.565Z,15.43
2023-05-30T06:32:22.576Z,15.35
2023-05-30T06:33:22.578Z,15.07
2023-05-30T06:34:22.493Z,15.28
2023-05-30T06:35:22.485Z,15.54
2023-05-30T06:36:22.485Z,15.35
2023-05-30T06:37:22.472Z,15.35
2023-05-30T06:38:22.504Z,15.28
2023-05-30T06:39:22.464Z,15.22
2023-05-30T06:40:22.433Z,15.29
2023-05-30T06:41:22.466Z,15.43
2023-05-30T06:42:22.504Z,15.62
2023-05-30T06:43:22.412Z,15.90
2023-05-30T06:44:22.427Z,16.24
2023-05-30T06:45:22.398Z,16.16
2023-05-30T06:46:22.433Z,16.17
2023-05-30T06:47:22.387Z,16.02
2023-05-30T06:48:22.381Z,16.13
2023-05-30T06:49:22.395Z,16.10
2023-05-30T06:50:22.363Z,16.10
2023-05-30T06:51:22.379Z,16.16
2023-05-30T06:52:22.352Z,16.12
2023-05-30T06:53:22.388Z,16.24
2023-05-30T06:54:22.347Z,16.26
2023-05-30T06:55:22.355Z,16.38
2023-05-30T06:56:22.333Z,16.42
2023-05-30T06:57:22.336Z,16.20
2023-05-30T06:58:22.466Z,16.20
2023-05-30T06:59:22.388Z,15.92
2023-05-30T07:00:22.299Z,16.13
2023-05-30T07:01:22.345Z,16.31
2023-05-30T07:02:22.497Z,16.31
2023-05-30T07:03:22.302Z,16.58
2023-05-30T07:04:22.294Z,16.74
2023-05-30T07:05:22.270Z,16.76
2023-05-30T07:06:22.258Z,16.74
2023-05-30T07:07:22.271Z,16.50
2023-05-30T07:08:22.226Z,16.42
2023-05-30T07:09:22.289Z,16.39
2023-05-30T07:10:22.227Z,16.57
2023-05-30T07:11:22.462Z,16.56
2023-05-30T07:12:23.477Z,16.54
2023-05-30T07:13:22.226Z,16.74
2023-05-30T07:14:22.398Z,16.71
2023-05-30T07:15:22.200Z,16.68
2023-05-30T07:16:22.216Z,16.81
2023-05-30T07:17:22.546Z,16.89
2023-05-30T07:18:22.181Z,16.97
2023-05-30T07:19:22.426Z,17.04
2023-05-30T07:20:22.270Z,17.06
2023-05-30T07:21:22.174Z,17.22
2023-05-30T07:22:22.168Z,17.23
2023-05-30T07:23:22.181Z,17.29
2023-05-30T07:24:22.126Z,17.46
2023-05-30T07:25:22.120Z,17.70
2023-05-30T07:26:22.110Z,17.92
2023-05-30T07:27:22.119Z,17.45
2023-05-30T07:28:22.132Z,17.44
2023-05-30T07:29:22.111Z,17.39
2023-05-30T07:30:22.111Z,17.39
2023-05-30T07:31:22.140Z,17.29
2023-05-30T07:32:22.089Z,17.24
2023-05-30T07:33:22.099Z,17.22
2023-05-30T07:34:22.105Z,17.12
2023-05-30T07:35:22.282Z,17.20
2023-05-30T07:36:22.282Z,17.39
2023-05-30T07:37:22.076Z,17.46
2023-05-30T07:38:22.058Z,17.41
2023-05-30T07:39:22.041Z,17.49
2023-05-30T07:40:22.055Z,17.79
2023-05-30T07:41:22.034Z,17.79
2023-05-30T07:42:22.010Z,17.44
2023-05-30T07:43:22.025Z,17.63
2023-05-30T07:44:22.059Z,17.83
2023-05-30T07:45:22.004Z,17.85
2023-05-30T07:46:22.097Z,17.97
2023-05-30T07:47:22.055Z,17.79
2023-05-30T07:48:21.998Z,17.54
2023-05-30T07:49:21.976Z,17.54
2023-05-30T07:50:22.023Z,17.46
2023-05-30T07:51:22.079Z,17.38
2023-05-30T07:52:23.387Z,17.65
2023-05-30T07:53:21.953Z,17.72
2023-05-30T07:54:21.972Z,17.86
2023-05-30T07:55:21.959Z,18.22
2023-05-30T07:56:21.955Z,18.23
2023-05-30T07:57:21.946Z,18.01
2023-05-30T07:58:21.935Z,18.03
2023-05-30T07:59:21.921Z,17.71
2023-05-30T08:00:21.968Z,17.56
2023-05-30T08:01:21.920Z,17.71
2023-05-30T08:02:21.935Z,17.94
2023-05-30T08:03:22.063Z,18.20
2023-05-30T08:04:21.982Z,18.37
2023-05-30T08:05:21.882Z,18.60
2023-05-30T08:06:21.922Z,18.65
2023-05-30T08:07:21.874Z,18.71
2023-05-30T08:08:21.872Z,18.90
2023-05-30T08:09:21.943Z,19.21
2023-05-30T08:10:21.920Z,19.36
2023-05-30T08:11:21.872Z,19.58
2023-05-30T08:12:21.978Z,19.88
2023-05-30T08:13:21.854Z,19.63
2023-05-30T08:14:21.841Z,19.19
2023-05-30T08:15:21.830Z,18.86
2023-05-30T08:16:21.885Z,18.96
2023-05-30T08:17:21.887Z,19.14
2023-05-30T08:18:21.820Z,19.24
2023-05-30T08:19:21.802Z,19.31
2023-05-30T08:20:21.920Z,19.34
2023-05-30T08:21:21.819Z,19.29
2023-05-30T08:22:21.801Z,19.30
2023-05-30T08:23:21.793Z,19.16
2023-05-30T08:24:21.877Z,19.34
2023-05-30T08:25:21.797Z,19.41
2023-05-30T08:26:21.772Z,19.19
2023-05-30T08:27:21.871Z,19.33
2023-05-30T08:28:21.779Z,19.39
2023-05-30T08:29:21.768Z,19.74
2023-05-30T08:30:21.810Z,19.52
2023-05-30T08:31:21.788Z,19.15
2023-05-30T08:32:21.793Z,18.74
2023-05-30T08:33:21.767Z,18.90
2023-05-30T08:34:21.748Z,18.90
2023-05-30T08:35:21.717Z,19.29
2023-05-30T08:36:21.725Z,19.41
2023-05-30T08:37:21.756Z,19.36
2023-05-30T08:38:21.729Z,19.24
2023-05-30T08:39:21.700Z,19.14
2023-05-30T08:40:21.720Z,18.96
2023-05-30T08:41:21.703Z,19.11
2023-05-30T08:42:21.725Z,19.12
2023-05-30T08:43:21.681Z,18.86
2023-05-30T08:44:21.720Z,19.15
2023-05-30T08:45:21.706Z,19.12
2023-05-30T08:46:21.763Z,19.22
2023-05-30T08:47:23.989Z,18.96
2023-05-30T08:48:21.672Z,18.92
2023-05-30T08:49:21.821Z,18.65
2023-05-30T08:50:21.674Z,18.80
2023-05-30T08:51:21.650Z,19.00
2023-05-30T08:52:21.648Z,19.21
2023-05-30T08:53:21.650Z,19.40
2023-05-30T08:54:21.688Z,19.51
2023-05-30T08:55:21.636Z,19.64
2023-05-30T08:56:21.657Z,19.31
2023-05-30T08:57:21.616Z,19.26
2023-05-30T08:58:21.662Z,19.18
2023-05-30T08:59:21.639Z,19.48
2023-05-30T09:00:21.642Z,19.15
2023-05-30T09:01:21.653Z,19.15
2023-05-30T09:02:21.643Z,19.24
2023-05-30T09:03:21.619Z,19.22
2023-05-30T09:04:21.787Z,19.29
2023-05-30T09:05:21.590Z,19.14
2023-05-30T09:06:21.581Z,19.24
2023-05-30T09:07:21.590Z,19.36
2023-05-30T09:08:21.571Z,19.12
2023-05-30T09:09:21.550Z,18.88
2023-05-30T09:10:21.652Z,19.11
2023-05-30T09:11:21.532Z,19.37
2023-05-30T09:12:21.529Z,19.48
2023-05-30T09:13:21.543Z,19.27
2023-05-30T09:14:21.532Z,19.21
2023-05-30T09:15:21.534Z,19.34
2023-05-30T09:16:21.539Z,19.54
2023-05-30T09:17:21.527Z,19.91
2023-05-30T09:18:21.540Z,20.31
2023-05-30T09:19:21.515Z,20.41
2023-05-30T09:20:21.671Z,20.60
2023-05-30T09:21:21.485Z,20.77
2023-05-30T09:22:21.508Z,20.78
2023-05-30T09:23:21.493Z,20.80
2023-05-30T09:24:21.474Z,20.84
2023-05-30T09:25:21.524Z,20.74
2023-05-30T09:26:21.529Z,20.62
2023-05-30T09:27:21.467Z,20.24
2023-05-30T09:28:21.466Z,20.29
2023-05-30T09:29:21.472Z,19.86
2023-05-30T09:30:21.452Z,19.91
2023-05-30T09:31:21.451Z,19.85
2023-05-30T09:32:21.472Z,19.76
2023-05-30T09:33:21.443Z,19.85
2023-05-30T09:34:21.413Z,19.86
2023-05-30T09:35:21.404Z,19.84
2023-05-30T09:36:21.624Z,19.99
2023-05-30T09:37:21.419Z,20.37
2023-05-30T09:38:21.416Z,20.44
2023-05-30T09:39:21.410Z,20.52
2023-05-30T09:40:21.392Z,20.26
2023-05-30T09:41:21.441Z,19.91
2023-05-30T09:42:21.395Z,19.40
2023-05-30T09:43:21.382Z,19.48
2023-05-30T09:44:21.395Z,19.86
2023-05-30T09:45:21.612Z,19.94
2023-05-30T09:46:21.446Z,19.88
2023-05-30T09:47:21.355Z,19.82
2023-05-30T09:48:21.371Z,20.04
2023-05-30T09:49:21.338Z,19.95
2023-05-30T09:50:21.357Z,19.81
2023-05-30T09:51:21.340Z,19.70
2023-05-30T09:52:21.340Z,19.47
2023-05-30T09:53:21.355Z,19.39
2023-05-30T09:54:21.344Z,19.44
2023-05-30T09:55:21.363Z,19.67
2023-05-30T09:56:21.305Z,19.91
2023-05-30T09:57:23.981Z,19.99
2023-05-30T09:58:21.324Z,19.95
2023-05-30T09:59:21.482Z,20.04
2023-05-30T10:00:21.312Z,19.96
2023-05-30T10:01:21.309Z,19.94
2023-05-30T10:02:21.438Z,20.00
2023-05-30T10:03:21.344Z,19.71
2023-05-30T10:04:21.275Z,19.69
2023-05-30T10:05:21.261Z,19.58
2023-05-30T10:06:21.256Z,19.31
2023-05-30T10:07:21.256Z,19.40
2023-05-30T10:08:21.247Z,19.48
2023-05-30T10:09:21.260Z,19.30
2023-05-30T10:10:21.227Z,19.40
2023-05-30T10:11:21.250Z,19.66
2023-05-30T10:12:21.244Z,19.73
2023-05-30T10:13:21.252Z,19.76
2023-05-30T10:14:21.230Z,19.71
2023-05-30T10:15:21.226Z,19.81
2023-05-30T10:16:21.303Z,19.95
2023-05-30T10:17:21.235Z,20.04
2023-05-30T10:18:21.261Z,20.21
2023-05-30T10:19:21.202Z,20.13
2023-05-30T10:20:21.211Z,19.96
2023-05-30T10:21:21.183Z,20.32
2023-05-30T10:22:21.187Z,20.41
2023-05-30T10:23:21.176Z,20.60
2023-05-30T10:24:21.196Z,20.39
2023-05-30T10:25:21.177Z,20.26
2023-05-30T10:26:21.200Z,20.37
2023-05-30T10:27:21.165Z,20.13
2023-05-30T10:28:21.155Z,20.36
2023-05-30T10:29:21.220Z,20.26
2023-05-30T10:30:21.143Z,20.16
2023-05-30T10:31:21.246Z,20.22
2023-05-30T10:32:21.153Z,20.31
2023-05-30T10:33:30.022Z,20.26
2023-05-30T10:34:21.118Z,20.50
2023-05-30T10:35:21.122Z,20.75
2023-05-30T10:36:21.112Z,21.15
2023-05-30T10:37:21.111Z,21.40
2023-05-30T10:38:21.098Z,21.45
2023-05-30T10:39:21.112Z,21.32
2023-05-30T10:40:21.107Z,21.27
2023-05-30T10:41:21.089Z,20.99
2023-05-30T10:42:21.086Z,20.95
2023-05-30T10:43:21.087Z,20.90
2023-05-30T10:44:21.098Z,20.92
2023-05-30T10:45:21.104Z,20.92
2023-05-30T10:46:21.092Z,20.96
2023-05-30T10:47:21.118Z,21.18
2023-05-30T10:48:21.053Z,21.35
2023-05-30T10:49:21.041Z,21.54
2023-05-30T10:50:21.082Z,21.79
2023-05-30T10:51:21.031Z,21.85
2023-05-30T10:52:21.056Z,21.54
2023-05-30T10:53:21.036Z,21.43
2023-05-30T10:54:21.115Z,21.48
2023-05-30T10:55:21.047Z,21.45
2023-05-30T10:56:21.245Z,21.35
2023-05-30T10:57:21.022Z,21.06
2023-05-30T10:58:21.012Z,20.99
2023-05-30T10:59:21.075Z,20.80
2023-05-30T11:00:21.020Z,20.93
2023-05-30T11:01:21.088Z,21.17
2023-05-30T11:02:21.224Z,20.95
2023-05-30T11:03:21.153Z,20.74
2023-05-30T11:04:21.138Z,20.90
2023-05-30T11:05:20.965Z,20.87
2023-05-30T11:06:20.985Z,20.78
2023-05-30T11:07:20.972Z,20.81
2023-05-30T11:08:20.973Z,20.93
2023-05-30T11:09:20.960Z,21.20
2023-05-30T11:10:20.959Z,21.24
2023-05-30T11:11:20.948Z,21.07
2023-05-30T11:12:20.983Z,20.58
2023-05-30T11:13:20.971Z,20.59
2023-05-30T11:14:20.973Z,20.50
2023-05-30T11:15:20.936Z,20.36
2023-05-30T11:16:21.031Z,20.39
2023-05-30T11:17:20.943Z,20.34
2023-05-30T11:18:20.937Z,20.60
2023-05-30T11:19:20.950Z,20.93
2023-05-30T11:20:20.956Z,21.14
2023-05-30T11:21:20.912Z,21.32
2023-05-30T11:22:20.910Z,21.33
2023-05-30T11:23:20.916Z,21.27
2023-05-30T11:24:20.887Z,20.99
2023-05-30T11:25:20.909Z,21.02
2023-05-30T11:26:20.904Z,20.93
2023-05-30T11:27:20.877Z,21.05
2023-05-30T11:28:20.891Z,21.32
2023-05-30T11:29:20.844Z,21.48
2023-05-30T11:30:20.870Z,21.57
2023-05-30T11:31:21.749Z,21.85
2023-05-30T11:32:21.073Z,22.14
2023-05-30T11:33:21.047Z,22.18
2023-05-30T11:34:20.848Z,22.15
2023-05-30T11:35:20.830Z,21.93
2023-05-30T11:36:21.269Z,21.83
2023-05-30T11:37:20.889Z,21.66
2023-05-30T11:38:20.894Z,21.52
2023-05-30T11:39:20.807Z,21.43
2023-05-30T11:40:20.814Z,21.46
2023-05-30T11:41:20.806Z,21.51
2023-05-30T11:42:20.787Z,21.30
2023-05-30T11:43:20.804Z,21.17
2023-05-30T11:44:20.786Z,21.42
2023-05-30T11:45:20.768Z,21.35
2023-05-30T11:46:20.827Z,21.45
2023-05-30T11:47:43.753Z,21.24
2023-05-30T11:48:20.835Z,21.20
2023-05-30T11:49:20.813Z,21.33
2023-05-30T11:50:20.764Z,21.27
2023-05-30T11:51:20.752Z,21.03
2023-05-30T11:52:20.754Z,21.06
2023-05-30T11:53:20.855Z,21.20
2023-05-30T11:54:20.756Z,21.27
2023-05-30T11:55:20.732Z,21.29
2023-05-30T11:56:20.791Z,21.25
2023-05-30T11:57:20.714Z,21.22
2023-05-30T11:58:20.773Z,21.15
2023-05-30T11:59:20.750Z,21.11
2023-05-30T12:00:20.753Z,21.22
2023-05-30T12:01:20.693Z,21.15
2023-05-30T12:02:20.736Z,20.69
2023-05-30T12:03:20.782Z,20.67
2023-05-30T12:04:20.762Z,20.92
2023-05-30T12:05:20.869Z,21.11
2023-05-30T12:06:20.747Z,21.22
2023-05-30T12:07:20.666Z,21.40
2023-05-30T12:08:20.731Z,21.58
2023-05-30T12:09:20.680Z,21.64
2023-05-30T12:10:20.675Z,21.85
2023-05-30T12:11:20.654Z,21.72
2023-05-30T12:12:20.638Z,21.83
2023-05-30T12:13:20.718Z,21.46
2023-05-30T12:14:20.647Z,20.90
2023-05-30T12:15:20.636Z,20.93
2023-05-30T12:16:20.672Z,21.12
2023-05-30T12:17:20.638Z,21.14
2023-05-30T12:18:20.775Z,21.20
2023-05-30T12:19:20.637Z,21.20
2023-05-30T12:20:20.689Z,21.24
2023-05-30T12:21:20.646Z,21.25
2023-05-30T12:22:20.647Z,21.35
2023-05-30T12:23:20.617Z,21.51
2023-05-30T12:24:20.600Z,21.66
2023-05-30T12:25:20.650Z,21.91
2023-05-30T12:26:20.666Z,21.58
2023-05-30T12:27:20.646Z,21.58
2023-05-30T12:28:20.616Z,21.30
2023-05-30T12:29:20.612Z,21.46
2023-05-30T12:30:20.592Z,21.37
2023-05-30T12:31:20.642Z,21.48
2023-05-30T12:32:20.598Z,21.48
2023-05-30T12:33:20.601Z,21.51
2023-05-30T12:34:20.596Z,21.39
2023-05-30T12:35:20.573Z,21.21
2023-05-30T12:36:29.291Z,20.97
2023-05-30T12:37:20.556Z,21.06
2023-05-30T12:38:20.568Z,21.02
2023-05-30T12:39:20.556Z,21.03
2023-05-30T12:40:20.558Z,20.99
2023-05-30T12:41:20.551Z,21.18
2023-05-30T12:42:20.553Z,21.00
2023-05-30T12:43:20.894Z,21.06
2023-05-30T12:44:20.509Z,20.95
2023-05-30T12:45:20.507Z,20.77
2023-05-30T12:46:20.561Z,20.66
2023-05-30T12:47:20.530Z,20.55
2023-05-30T12:48:20.522Z,20.62
2023-05-30T12:49:20.546Z,20.99
2023-05-30T12:50:20.482Z,21.14
2023-05-30T12:51:20.534Z,21.32
2023-05-30T12:52:20.477Z,21.52